createdAt,value
2022-08-09T00:02:17.696Z,54.00
2022-08-09T00:06:18.224Z,54.10
2022-08-09T00:10:05.719Z,54.30
2022-08-09T00:13:48.010Z,54.60
2022-08-09T00:18:05.151Z,54.50
2022-08-09T00:21:31.935Z,54.60
2022-08-09T00:25:15.084Z,54.50
2022-08-09T00:29:12.407Z,54.50
2022-08-09T00:33:07.657Z,54.80
2022-08-09T00:36:49.791Z,55.10
2022-08-09T00:40:31.831Z,55.20
2022-08-09T00:44:25.427Z,55.50
2022-08-09T00:48:08.519Z,55.80
2022-08-09T00:51:57.482Z,55.90
2022-08-09T00:56:03.686Z,56.20
2022-08-09T00:59:47.241Z,56.40
2022-08-09T01:03:50.385Z,56.90
2022-08-09T01:08:01.068Z,57.70
2022-08-09T01:11:53.447Z,56.50
2022-08-09T01:15:52.379Z,57.70
2022-08-09T01:20:03.375Z,57.40
2022-08-09T01:24:05.266Z,58.20
2022-08-09T01:27:53.251Z,58.40
2022-08-09T01:32:37.747Z,58.10
2022-08-09T01:36:08.906Z,57.60
2022-08-09T01:39:53.350Z,58.50
2022-08-09T01:43:47.925Z,57.40
2022-08-09T01:47:44.910Z,57.60
2022-08-09T01:51:33.215Z,57.30
2022-08-09T01:55:15.654Z,57.40
2022-08-09T01:59:01.569Z,57.20
2022-08-09T02:02:46.642Z,57.20
2022-08-09T02:06:58.451Z,57.40
2022-08-09T02:10:51.009Z,57.30
2022-08-09T02:14:34.301Z,57.70
2022-08-09T02:18:21.945Z,57.30
2022-08-09T02:22:11.629Z,58.40
2022-08-09T02:25:58.596Z,57.90
2022-08-09T02:29:48.540Z,58.40
2022-08-09T02:34:07.448Z,58.50
2022-08-09T02:37:45.446Z,58.60
2022-08-09T02:41:48.307Z,58.20
2022-08-09T02:45:34.200Z,59.60
2022-08-09T02:49:19.387Z,58.80
2022-08-09T02:53:26.432Z,58.90
2022-08-09T02:57:14.047Z,59.30
2022-08-09T03:01:08.213Z,58.90
2022-08-09T03:04:54.405Z,59.20
2022-08-09T03:08:39.372Z,59.60
2022-08-09T03:12:24.462Z,59.60
2022-08-09T03:16:07.765Z,60.00
2022-08-09T03:19:58.126Z,59.80
2022-08-09T03:24:03.755Z,59.90
2022-08-09T03:27:52.839Z,59.90
2022-08-09T03:31:42.478Z,60.90
2022-08-09T03:36:13.936Z,60.50
2022-08-09T03:39:38.071Z,60.50
2022-08-09T03:43:20.231Z,60.30
2022-08-09T03:47:02.577Z,60.30
2022-08-09T03:50:48.506Z,60.40
2022-08-09T03:54:38.582Z,60.70
2022-08-09T03:58:21.446Z,61.00
2022-08-09T04:02:04.280Z,60.70
2022-08-09T04:05:50.126Z,60.90
2022-08-09T04:09:44.496Z,60.90
2022-08-09T04:14:37.545Z,61.00
2022-08-09T04:17:33.723Z,61.00
2022-08-09T04:21:15.684Z,61.10
2022-08-09T04:24:59.508Z,61.20
2022-08-09T04:28:42.290Z,61.10
2022-08-09T04:32:33.638Z,60.60
2022-08-09T04:36:19.368Z,60.80
2022-08-09T04:40:02.096Z,61.00
2022-08-09T04:43:49.737Z,61.20
2022-08-09T04:48:00.984Z,61.40
2022-08-09T04:51:46.128Z,61.40
2022-08-09T04:55:28.496Z,61.50
2022-08-09T04:59:22.638Z,61.40
2022-08-09T05:03:13.368Z,61.30
2022-08-09T05:07:07.862Z,61.30
2022-08-09T05:11:02.739Z,61.00
2022-08-09T05:14:44.923Z,61.40
2022-08-09T05:18:42.537Z,61.40
2022-08-09T05:22:35.749Z,61.60
2022-08-09T05:26:36.222Z,61.60
2022-08-09T05:30:20.471Z,61.80
2022-08-09T05:34:02.479Z,62.10
2022-08-09T05:37:46.395Z,62.10
2022-08-09T05:41:32.014Z,62.00
2022-08-09T05:45:15.014Z,62.10
2022-08-09T05:48:58.902Z,62.10
2022-08-09T05:52:42.957Z,62.00
2022-08-09T05:56:26.019Z,61.50
2022-08-09T06:00:08.775Z,61.00
2022-08-09T06:03:58.004Z,61.30
2022-08-09T06:07:40.811Z,60.40
2022-08-09T06:11:24.418Z,60.10
2022-08-09T06:15:23.215Z,59.70
2022-08-09T06:19:08.511Z,59.20
2022-08-09T06:22:50.528Z,58.90
2022-08-09T06:26:34.447Z,58.60
2022-08-09T06:30:17.190Z,58.40
2022-08-09T06:33:59.940Z,58.00
2022-08-09T06:37:49.814Z,57.60
2022-08-09T06:42:08.080Z,57.40
2022-08-09T06:46:07.628Z,57.10
2022-08-09T06:50:11.983Z,56.80
2022-08-09T06:53:41.346Z,56.60
2022-08-09T06:57:25.685Z,56.40
2022-08-09T07:01:27.628Z,56.10
2022-08-09T07:06:02.419Z,55.80
2022-08-09T07:09:53.529Z,55.30
2022-08-09T07:14:04.283Z,55.00
2022-08-09T07:17:39.467Z,55.20
2022-08-09T07:21:22.065Z,55.20
2022-08-09T07:25:09.585Z,54.80
2022-08-09T07:29:01.303Z,54.50
2022-08-09T07:32:51.657Z,54.40
2022-08-09T07:36:33.834Z,54.20
2022-08-09T07:40:20.182Z,54.10
2022-08-09T07:44:07.039Z,54.00
2022-08-09T07:48:00.692Z,54.00
2022-08-09T07:52:05.878Z,53.80
2022-08-09T07:56:03.673Z,53.70
2022-08-09T08:00:02.870Z,53.70
2022-08-09T08:03:46.050Z,53.50
2022-08-09T08:08:43.082Z,53.40
2022-08-09T08:12:09.662Z,53.40
2022-08-09T08:15:37.676Z,54.00
2022-08-09T08:19:21.367Z,53.40
2022-08-09T08:23:16.046Z,53.30
2022-08-09T08:26:59.234Z,53.10
2022-08-09T08:30:41.888Z,53.00
2022-08-09T08:34:25.342Z,52.80
2022-08-09T08:38:11.345Z,52.80
2022-08-09T08:41:54.464Z,52.60
2022-08-09T08:45:53.590Z,52.40
2022-08-09T08:49:49.273Z,51.80
2022-08-09T08:53:36.792Z,53.20
2022-08-09T08:57:21.028Z,52.30
2022-08-09T09:01:09.142Z,52.10
2022-08-09T09:05:06.007Z,51.90
2022-08-09T09:08:52.932Z,51.70
2022-08-09T09:12:44.414Z,51.70
2022-08-09T09:16:35.163Z,51.50
2022-08-09T09:20:18.008Z,51.00
2022-08-09T09:24:10.438Z,51.20
2022-08-09T09:28:08.190Z,50.40
2022-08-09T09:32:04.125Z,50.90
2022-08-09T09:36:03.640Z,51.50
2022-08-09T09:39:59.566Z,50.80
2022-08-09T09:44:10.741Z,51.30
2022-08-09T09:47:56.526Z,51.10
2022-08-09T09:51:41.495Z,51.20
2022-08-09T09:55:31.970Z,51.30
2022-08-09T09:59:20.811Z,51.10
2022-08-09T10:03:09.211Z,50.80
2022-08-09T10:06:54.424Z,50.70
2022-08-09T10:10:36.860Z,50.70
2022-08-09T10:14:33.834Z,50.70
2022-08-09T10:18:16.510Z,50.50
2022-08-09T10:22:00.313Z,50.70
2022-08-09T10:26:07.375Z,50.60
2022-08-09T10:30:43.910Z,50.40
2022-08-09T10:34:10.673Z,50.40
2022-08-09T10:37:52.288Z,50.60
2022-08-09T10:41:35.983Z,50.30
2022-08-09T10:45:18.828Z,50.20
2022-08-09T10:49:07.874Z,50.00
2022-08-09T10:53:00.002Z,49.30
2022-08-09T10:56:43.472Z,48.80
2022-08-09T11:00:31.559Z,49.30
2022-08-09T11:04:20.005Z,48.60
2022-08-09T11:08:47.417Z,49.10
2022-08-09T11:12:30.460Z,48.80
2022-08-09T11:16:36.271Z,49.20
2022-08-09T11:20:37.640Z,48.40
2022-08-09T11:24:21.555Z,48.80
2022-08-09T11:28:33.689Z,48.60
2022-08-09T11:32:45.938Z,47.50
2022-08-09T11:36:42.967Z,47.70
2022-08-09T11:40:33.006Z,47.20
2022-08-09T11:44:17.850Z,47.20
2022-08-09T11:48:11.101Z,48.10
2022-08-09T11:53:02.282Z,47.60
2022-08-09T11:56:19.571Z,48.50
2022-08-09T12:00:15.854Z,47.40
2022-08-09T12:04:01.793Z,47.30
2022-08-09T12:07:43.952Z,47.50
2022-08-09T12:11:27.842Z,47.70
2022-08-09T12:15:50.503Z,47.40
2022-08-09T12:19:32.300Z,46.00
2022-08-09T12:23:14.422Z,46.50
2022-08-09T12:29:11.082Z,46.70
2022-08-09T12:31:30.930Z,46.70
2022-08-09T12:35:37.821Z,45.30
2022-08-09T12:39:22.888Z,46.50
2022-08-09T12:43:05.971Z,45.90
2022-08-09T12:46:50.088Z,46.00
2022-08-09T12:50:34.509Z,46.00
2022-08-09T12:54:17.905Z,45.70
2022-08-09T12:58:10.882Z,45.70
2022-08-09T13:02:09.413Z,45.10
2022-08-09T13:06:15.935Z,45.30
2022-08-09T13:10:03.691Z,45.30
2022-08-09T13:14:41.144Z,44.30
2022-08-09T13:18:04.900Z,45.10
2022-08-09T13:22:37.549Z,44.80
2022-08-09T13:25:54.734Z,44.70
2022-08-09T13:30:02.975Z,44.60
2022-08-09T13:33:53.154Z,44.10
2022-08-09T13:37:51.763Z,44.10
2022-08-09T13:41:59.352Z,44.10
2022-08-09T13:46:44.346Z,43.90
2022-08-09T13:49:56.091Z,43.50
2022-08-09T13:53:43.669Z,43.50
2022-08-09T13:57:36.656Z,43.20
2022-08-09T14:02:01.493Z,43.10
2022-08-09T14:05:58.266Z,42.70
2022-08-09T14:09:26.347Z,42.50
2022-08-09T14:13:12.141Z,42.50
2022-08-09T14:17:12.639Z,42.30
2022-08-09T14:20:56.501Z,42.40
2022-08-09T14:24:46.925Z,42.30
2022-08-09T14:28:36.085Z,42.30
2022-08-09T14:32:19.659Z,41.90
2022-08-09T14:36:19.759Z,41.70
2022-08-09T14:40:03.663Z,41.70
2022-08-09T14:43:47.537Z,41.70
2022-08-09T14:47:45.349Z,42.30
2022-08-09T14:51:31.384Z,42.10
2022-08-09T14:55:24.775Z,42.10
2022-08-09T14:59:08.578Z,42.10
2022-08-09T15:02:58.232Z,42.00
2022-08-09T15:06:42.082Z,42.20
2022-08-09T15:10:32.809Z,42.20
2022-08-09T15:14:14.899Z,42.40
2022-08-09T15:18:01.151Z,42.50
2022-08-09T15:21:55.794Z,42.10
2022-08-09T15:25:42.557Z,42.00
2022-08-09T15:30:58.380Z,41.90
2022-08-09T15:34:11.672Z,41.90
2022-08-09T15:37:37.067Z,41.90
2022-08-09T15:41:22.323Z,41.80
2022-08-09T15:45:06.163Z,41.80
2022-08-09T15:49:20.425Z,41.80
2022-08-09T15:52:55.147Z,42.00
2022-08-09T15:56:48.391Z,41.70
2022-08-09T16:00:31.810Z,41.60
2022-08-09T16:04:14.165Z,41.50
2022-08-09T16:07:56.762Z,41.90
2022-08-09T16:11:38.996Z,41.40
2022-08-09T16:16:10.663Z,41.90
2022-08-09T16:19:24.685Z,41.50
2022-08-09T16:23:11.244Z,41.30
2022-08-09T16:26:53.281Z,41.30
2022-08-09T16:30:38.658Z,41.10
2022-08-09T16:34:27.201Z,41.10
2022-08-09T16:38:11.112Z,40.80
2022-08-09T16:42:04.092Z,40.70
2022-08-09T16:45:46.822Z,40.60
2022-08-09T16:50:32.196Z,40.70
2022-08-09T16:53:34.290Z,40.70
2022-08-09T16:57:16.528Z,40.70
2022-08-09T17:00:58.510Z,40.70
2022-08-09T17:04:41.092Z,40.60
2022-08-09T17:08:46.511Z,40.70
2022-08-09T17:12:26.237Z,40.80
2022-08-09T17:16:08.343Z,40.30
2022-08-09T17:20:28.319Z,40.10
2022-08-09T17:24:27.489Z,40.00
2022-08-09T17:27:55.950Z,39.90
2022-08-09T17:31:38.796Z,39.70
2022-08-09T17:35:22.886Z,39.60
2022-08-09T17:39:06.221Z,40.10
2022-08-09T17:42:55.615Z,39.30
2022-08-09T17:46:41.906Z,39.30
2022-08-09T17:50:37.909Z,39.20
2022-08-09T17:54:19.877Z,39.10
2022-08-09T17:58:17.237Z,39.00
2022-08-09T18:02:11.018Z,39.00
2022-08-09T18:05:58.334Z,39.10
2022-08-09T18:09:43.676Z,39.20
2022-08-09T18:14:00.645Z,39.20
2022-08-09T18:18:03.617Z,39.40
2022-08-09T18:21:47.054Z,39.50
2022-08-09T18:25:50.135Z,39.60
2022-08-09T18:30:40.269Z,39.70
2022-08-09T18:33:36.414Z,40.60
2022-08-09T18:37:48.611Z,39.90
2022-08-09T18:41:21.806Z,40.70
2022-08-09T18:45:10.081Z,40.10
2022-08-09T18:49:03.932Z,40.20
2022-08-09T18:52:46.726Z,40.20
2022-08-09T18:56:32.982Z,40.30
2022-08-09T19:00:20.331Z,40.40
2022-08-09T19:04:08.500Z,40.50
2022-08-09T19:08:04.787Z,40.60
2022-08-09T19:11:52.831Z,40.80
2022-08-09T19:15:34.812Z,40.80
2022-08-09T19:19:23.766Z,40.90
2022-08-09T19:23:16.487Z,41.00
2022-08-09T19:26:58.847Z,41.10
2022-08-09T19:30:44.505Z,41.20
2022-08-09T19:34:26.917Z,41.30
2022-08-09T19:38:08.961Z,41.50
2022-08-09T19:41:53.382Z,41.70
2022-08-09T19:45:40.281Z,41.80
2022-08-09T19:50:07.977Z,42.10
2022-08-09T19:53:26.513Z,42.20
2022-08-09T19:57:09.336Z,42.40
2022-08-09T20:00:51.390Z,42.70
2022-08-09T20:04:37.712Z,42.90
2022-08-09T20:08:25.073Z,43.00
2022-08-09T20:12:30.002Z,43.20
2022-08-09T20:16:36.491Z,43.30
2022-08-09T20:20:21.047Z,43.50
2022-08-09T20:24:04.675Z,43.70
2022-08-09T20:27:46.586Z,43.90
2022-08-09T20:31:29.066Z,44.00
2022-08-09T20:35:12.155Z,44.10
2022-08-09T20:39:28.318Z,44.30
2022-08-09T20:43:17.977Z,44.60
2022-08-09T20:47:01.266Z,44.80
2022-08-09T20:50:46.362Z,45.00
2022-08-09T20:54:30.899Z,45.20
2022-08-09T20:58:20.603Z,45.40
2022-08-09T21:02:02.840Z,45.40
2022-08-09T21:05:55.220Z,45.40
2022-08-09T21:09:56.914Z,45.60
2022-08-09T21:13:57.770Z,46.50
2022-08-09T21:18:21.908Z,46.20
2022-08-09T21:21:57.231Z,46.50
2022-08-09T21:25:56.115Z,46.60
2022-08-09T21:29:49.119Z,47.10
2022-08-09T21:33:36.259Z,47.50
2022-08-09T21:37:18.682Z,47.80
2022-08-09T21:41:00.711Z,48.10
2022-08-09T21:44:43.571Z,48.40
2022-08-09T21:48:25.666Z,48.60
2022-08-09T21:52:16.578Z,48.70
2022-08-09T21:55:59.304Z,49.10
2022-08-09T21:59:45.478Z,49.00
2022-08-09T22:03:27.650Z,49.20
2022-08-09T22:07:09.716Z,49.50
2022-08-09T22:11:49.566Z,49.80
2022-08-09T22:14:58.102Z,50.20
2022-08-09T22:18:52.148Z,49.70
2022-08-09T22:22:36.603Z,50.10
2022-08-09T22:26:34.407Z,50.20
2022-08-09T22:30:26.045Z,50.50
2022-08-09T22:34:14.476Z,50.70
2022-08-09T22:38:03.328Z,51.00
2022-08-09T22:41:49.827Z,51.30
2022-08-09T22:48:11.357Z,51.50
2022-08-09T22:49:36.638Z,51.70
2022-08-09T22:53:22.345Z,52.10
2022-08-09T22:57:05.159Z,52.30
2022-08-09T23:00:47.115Z,52.40
2022-08-09T23:04:32.811Z,52.40
2022-08-09T23:08:33.500Z,52.50
2022-08-09T23:12:16.199Z,52.60
2022-08-09T23:16:03.159Z,52.80
2022-08-09T23:20:06.859Z,52.90
2022-08-09T23:24:01.666Z,53.20
2022-08-09T23:27:57.207Z,53.50
2022-08-09T23:31:54.319Z,53.70
2022-08-09T23:36:04.848Z,53.90
2022-08-09T23:39:38.500Z,54.20
2022-08-09T23:43:20.713Z,54.50
2022-08-09T23:47:02.690Z,54.70
2022-08-09T23:50:44.628Z,54.90
2022-08-09T23:54:27.582Z,55.20
2022-08-09T23:58:25.557Z,55.40
